createdAt,value
2023-02-11T00:01:00.357Z,98728.88
2023-02-11T00:03:27.398Z,98728.78
2023-02-11T00:06:06.033Z,98744.56
2023-02-11T00:08:37.217Z,98732.94
2023-02-11T00:11:05.107Z,98718.19
2023-02-11T00:13:31.965Z,98731.31
2023-02-11T00:15:58.980Z,98721.22
2023-02-11T00:18:25.841Z,98722.66
2023-02-11T00:20:52.783Z,98726.44
2023-02-11T00:23:19.669Z,98727.72
2023-02-11T00:25:46.560Z,98721.66
2023-02-11T00:28:13.557Z,98711.66
2023-02-11T00:30:41.098Z,98713.00
2023-02-11T00:33:08.899Z,98723.31
2023-02-11T00:35:38.685Z,98733.03
2023-02-11T00:38:08.034Z,98727.13
2023-02-11T00:40:34.915Z,98723.69
2023-02-11T00:43:03.777Z,98716.78
2023-02-11T00:45:30.847Z,98713.94
2023-02-11T00:47:58.200Z,98721.84
2023-02-11T00:50:25.228Z,98731.81
2023-02-11T00:52:52.163Z,98707.66
2023-02-11T00:55:19.333Z,98712.13
2023-02-11T00:57:46.554Z,98726.03
2023-02-11T01:00:16.832Z,98734.56
2023-02-11T01:02:45.055Z,98729.81
2023-02-11T01:05:11.994Z,98720.06
2023-02-11T01:07:38.987Z,98705.69
2023-02-11T01:10:06.265Z,98714.53
2023-02-11T01:12:36.164Z,98705.06
2023-02-11T01:15:04.160Z,98704.59
2023-02-11T01:17:34.194Z,98712.94
2023-02-11T01:20:06.027Z,98700.41
2023-02-11T01:22:34.405Z,98703.69
2023-02-11T01:25:01.275Z,98711.66
2023-02-11T01:27:29.752Z,98715.06
2023-02-11T01:29:57.868Z,98712.53
2023-02-11T01:32:24.759Z,98707.47
2023-02-11T01:34:54.048Z,98697.34
2023-02-11T01:37:21.051Z,98695.16
2023-02-11T01:39:48.319Z,98691.50
2023-02-11T01:42:21.083Z,98697.03
2023-02-11T01:44:52.587Z,98686.72
2023-02-11T01:47:21.039Z,98684.09
2023-02-11T01:49:57.064Z,98681.53
2023-02-11T01:52:26.873Z,98686.53
2023-02-11T01:55:16.709Z,98691.16
2023-02-11T01:57:47.681Z,98683.25
2023-02-11T02:00:14.775Z,98685.25
2023-02-11T02:03:04.161Z,98684.09
2023-02-11T02:05:46.640Z,98687.63
2023-02-11T02:08:34.804Z,98694.09
2023-02-11T02:11:03.170Z,98688.81
2023-02-11T02:13:32.317Z,98679.00
2023-02-11T02:16:22.077Z,98673.16
2023-02-11T02:19:22.566Z,98687.81
2023-02-11T02:22:11.041Z,98694.38
2023-02-11T02:25:01.075Z,98692.00
2023-02-11T02:27:39.973Z,98687.81
2023-02-11T02:30:38.516Z,98693.63
2023-02-11T02:33:24.454Z,98687.69
2023-02-11T02:36:03.037Z,98689.03
2023-02-11T02:38:48.786Z,98683.19
2023-02-11T02:41:19.049Z,98686.25
2023-02-11T02:43:49.298Z,98669.66
2023-02-11T02:46:23.996Z,98663.75
2023-02-11T02:48:53.401Z,98684.22
2023-02-11T02:51:44.712Z,98680.78
2023-02-11T02:54:39.220Z,98685.53
2023-02-11T02:57:30.998Z,98687.78
2023-02-11T03:00:19.416Z,98685.91
2023-02-11T03:02:58.330Z,98693.22
2023-02-11T03:05:40.439Z,98690.78
2023-02-11T03:08:24.083Z,98693.88
2023-02-11T03:10:53.807Z,98689.38
2023-02-11T03:13:25.202Z,98687.69
2023-02-11T03:15:55.686Z,98667.91
2023-02-11T03:18:26.156Z,98687.28
2023-02-11T03:20:56.280Z,98691.63
2023-02-11T03:23:30.875Z,98682.47
2023-02-11T03:26:31.358Z,98688.97
2023-02-11T03:29:04.238Z,98682.09
2023-02-11T03:31:45.056Z,98684.34
2023-02-11T03:34:38.020Z,98661.34
2023-02-11T03:37:08.019Z,98673.59
2023-02-11T03:39:47.696Z,98677.16
2023-02-11T03:42:16.459Z,98670.53
2023-02-11T03:44:53.795Z,98667.78
2023-02-11T03:47:25.838Z,98668.34
2023-02-11T03:49:54.724Z,98664.69
2023-02-11T03:52:24.822Z,98662.78
2023-02-11T03:54:55.642Z,98667.47
2023-02-11T03:57:22.598Z,98662.56
2023-02-11T03:59:58.364Z,98653.25
2023-02-11T04:02:30.316Z,98660.06
2023-02-11T04:04:57.627Z,98646.94
2023-02-11T04:07:25.471Z,98656.63
2023-02-11T04:09:52.991Z,98666.56
2023-02-11T04:12:19.987Z,98673.34
2023-02-11T04:14:46.837Z,98672.94
2023-02-11T04:17:13.814Z,98668.47
2023-02-11T04:19:40.726Z,98666.97
2023-02-11T04:22:08.233Z,98667.56
2023-02-11T04:24:35.511Z,98675.72
2023-02-11T04:27:02.632Z,98666.41
2023-02-11T04:29:29.858Z,98662.69
2023-02-11T04:31:56.764Z,98665.34
2023-02-11T04:34:24.596Z,98672.19
2023-02-11T04:36:51.618Z,98666.13
2023-02-11T04:39:18.756Z,98668.28
2023-02-11T04:41:45.840Z,98656.91
2023-02-11T04:44:12.769Z,98648.31
2023-02-11T04:46:39.665Z,98656.06
2023-02-11T04:49:06.585Z,98654.53
2023-02-11T04:51:33.541Z,98646.41
2023-02-11T04:54:00.489Z,98643.66
2023-02-11T04:56:27.464Z,98641.09
2023-02-11T04:58:54.431Z,98638.38
2023-02-11T05:01:21.972Z,98645.78
2023-02-11T05:03:49.406Z,98637.56
2023-02-11T05:06:16.425Z,98627.66
2023-02-11T05:08:43.460Z,98642.13
2023-02-11T05:11:17.199Z,98635.09
2023-02-11T05:13:44.215Z,98626.88
2023-02-11T05:16:11.460Z,98632.84
2023-02-11T05:18:39.238Z,98644.47
2023-02-11T05:21:10.426Z,98633.38
2023-02-11T05:23:37.435Z,98635.94
2023-02-11T05:26:04.513Z,98636.09
2023-02-11T05:28:32.559Z,98632.72
2023-02-11T05:30:59.558Z,98635.72
2023-02-11T05:33:26.543Z,98646.16
2023-02-11T05:36:08.512Z,98629.47
2023-02-11T05:38:36.395Z,98638.41
2023-02-11T05:41:05.277Z,98613.00
2023-02-11T05:43:32.459Z,98631.50
2023-02-11T05:45:59.494Z,98641.91
2023-02-11T05:48:26.438Z,98625.66
2023-02-11T05:50:53.345Z,98636.53
2023-02-11T05:53:20.251Z,98638.28
2023-02-11T05:55:47.264Z,98642.94
2023-02-11T05:58:14.150Z,98640.56
2023-02-11T06:00:41.043Z,98651.56
2023-02-11T06:03:08.154Z,98645.09
2023-02-11T06:05:35.068Z,98640.41
2023-02-11T06:08:01.923Z,98639.25
2023-02-11T06:10:28.862Z,98638.97
2023-02-11T06:12:55.776Z,98639.44
2023-02-11T06:15:22.606Z,98642.22
2023-02-11T06:17:49.437Z,98642.59
2023-02-11T06:20:16.570Z,98640.00
2023-02-11T06:22:43.451Z,98650.53
2023-02-11T06:25:11.281Z,98641.84
2023-02-11T06:27:38.632Z,98641.56
2023-02-11T06:30:07.139Z,98647.13
2023-02-11T06:32:49.587Z,98649.50
2023-02-11T06:35:16.614Z,98629.66
2023-02-11T06:37:43.942Z,98643.13
2023-02-11T06:40:11.742Z,98638.56
2023-02-11T06:42:39.986Z,98644.38
2023-02-11T06:45:09.604Z,98633.69
2023-02-11T06:47:37.303Z,98638.63
2023-02-11T06:50:09.595Z,98640.13
2023-02-11T06:52:36.959Z,98640.47
2023-02-11T06:55:04.092Z,98633.44
2023-02-11T06:57:41.188Z,98647.25
2023-02-11T07:00:09.571Z,98637.66
2023-02-11T07:02:37.080Z,98640.28
2023-02-11T07:05:06.934Z,98641.63
2023-02-11T07:07:34.485Z,98646.94
2023-02-11T07:10:03.262Z,98635.56
2023-02-11T07:12:31.452Z,98630.25
2023-02-11T07:14:58.391Z,98636.34
2023-02-11T07:17:25.339Z,98622.44
2023-02-11T07:19:52.232Z,98634.06
2023-02-11T07:22:19.226Z,98626.66
2023-02-11T07:24:46.407Z,98624.59
2023-02-11T07:27:13.319Z,98631.97
2023-02-11T07:29:42.491Z,98627.66
2023-02-11T07:32:09.804Z,98599.75
2023-02-11T07:34:38.373Z,98613.38
2023-02-11T07:37:05.592Z,98628.84
2023-02-11T07:39:33.062Z,98619.81
2023-02-11T07:42:00.724Z,98616.63
2023-02-11T07:44:28.271Z,98626.81
2023-02-11T07:46:55.533Z,98622.75
2023-02-11T07:49:25.826Z,98629.13
2023-02-11T07:51:53.724Z,98608.69
2023-02-11T07:54:20.963Z,98624.34
2023-02-11T07:56:48.074Z,98620.44
2023-02-11T07:59:15.054Z,98614.25
2023-02-11T08:01:42.029Z,98621.44
2023-02-11T08:04:08.936Z,98619.38
2023-02-11T08:06:40.202Z,98616.28
2023-02-11T08:09:09.506Z,98612.22
2023-02-11T08:11:36.844Z,98608.22
2023-02-11T08:14:03.865Z,98596.44
2023-02-11T08:16:33.822Z,98606.19
2023-02-11T08:19:04.528Z,98610.09
2023-02-11T08:21:31.445Z,98592.97
2023-02-11T08:23:58.650Z,98603.28
2023-02-11T08:26:29.689Z,98590.00
2023-02-11T08:28:57.766Z,98608.97
2023-02-11T08:31:34.504Z,98575.75
2023-02-11T08:34:02.681Z,98604.72
2023-02-11T08:36:33.055Z,98600.78
2023-02-11T08:39:18.222Z,98605.38
2023-02-11T08:41:59.225Z,98594.38
2023-02-11T08:44:26.470Z,98597.09
2023-02-11T08:46:53.986Z,98592.94
2023-02-11T08:49:23.030Z,98581.97
2023-02-11T08:51:50.403Z,98561.44
2023-02-11T08:54:18.096Z,98589.78
2023-02-11T08:56:45.737Z,98590.47
2023-02-11T08:59:17.189Z,98586.13
2023-02-11T09:01:44.447Z,98594.78
2023-02-11T09:04:11.506Z,98554.56
2023-02-11T09:06:38.774Z,98583.88
2023-02-11T09:09:05.750Z,98574.41
2023-02-11T09:11:35.658Z,98578.03
2023-02-11T09:14:03.983Z,98573.91
2023-02-11T09:16:33.875Z,98573.00
2023-02-11T09:19:02.115Z,98576.22
2023-02-11T09:21:30.471Z,98559.53
2023-02-11T09:23:57.558Z,98546.69
2023-02-11T09:26:27.551Z,98551.97
2023-02-11T09:28:56.193Z,98525.53
2023-02-11T09:31:25.557Z,98536.72
2023-02-11T09:33:55.589Z,98537.81
2023-02-11T09:36:25.386Z,98520.94
2023-02-11T09:38:53.405Z,98526.03
2023-02-11T09:41:23.091Z,98532.78
2023-02-11T09:43:56.929Z,98517.53
2023-02-11T09:46:25.870Z,98520.94
2023-02-11T09:48:55.350Z,98503.06
2023-02-11T09:51:34.396Z,98504.00
2023-02-11T09:54:07.903Z,98495.44
2023-02-11T09:56:34.861Z,98494.66
2023-02-11T09:59:02.054Z,98449.34
2023-02-11T10:01:47.163Z,98486.06
2023-02-11T10:04:57.922Z,98480.19
2023-02-11T10:07:48.797Z,98434.06
2023-02-11T10:10:24.852Z,98471.81
2023-02-11T10:13:16.202Z,98453.03
2023-02-11T10:15:48.550Z,98456.47
2023-02-11T10:18:46.124Z,98452.25
2023-02-11T10:21:28.528Z,98449.66
2023-02-11T10:24:00.335Z,98444.50
2023-02-11T10:26:31.990Z,98430.81
2023-02-11T10:29:05.758Z,98438.53
2023-02-11T10:31:45.021Z,98427.47
2023-02-11T10:34:14.305Z,98426.63
2023-02-11T10:36:44.301Z,98422.34
2023-02-11T10:39:16.484Z,98419.78
2023-02-11T10:42:08.995Z,98416.38
2023-02-11T10:44:43.782Z,98407.81
2023-02-11T10:47:21.244Z,98379.59
2023-02-11T10:49:49.032Z,98390.69
2023-02-11T10:52:23.987Z,98378.75
2023-02-11T10:54:57.762Z,98389.84
2023-02-11T10:57:30.496Z,98376.13
2023-02-11T11:00:00.611Z,98371.00
2023-02-11T11:02:34.489Z,98365.03
2023-02-11T11:05:07.054Z,98362.44
2023-02-11T11:07:34.466Z,98345.34
2023-02-11T11:10:25.055Z,98348.75
2023-02-11T11:12:52.165Z,98359.00
2023-02-11T11:15:23.635Z,98352.13
2023-02-11T11:18:20.894Z,98350.38
2023-02-11T11:21:00.323Z,98335.88
2023-02-11T11:23:29.638Z,98332.38
2023-02-11T11:26:05.586Z,98341.66
2023-02-11T11:28:43.500Z,98327.03
2023-02-11T11:31:35.642Z,98326.06
2023-02-11T11:34:23.321Z,98315.78
2023-02-11T11:36:50.983Z,98316.66
2023-02-11T11:39:21.087Z,98320.09
2023-02-11T11:41:57.504Z,98311.63
2023-02-11T11:44:24.492Z,98300.41
2023-02-11T11:47:07.584Z,98296.97
2023-02-11T11:49:59.382Z,98299.41
2023-02-11T11:52:32.441Z,98301.00
2023-02-11T11:55:13.185Z,98287.38
2023-02-11T11:57:40.560Z,98291.59
2023-02-11T12:00:15.612Z,98277.94
2023-02-11T12:03:20.985Z,98282.16
2023-02-11T12:06:13.407Z,98274.44
2023-02-11T12:09:07.965Z,98268.44
2023-02-11T12:11:43.835Z,98266.84
2023-02-11T12:14:25.607Z,98261.81
2023-02-11T12:16:55.156Z,98255.75
2023-02-11T12:19:32.265Z,98255.69
2023-02-11T12:22:11.984Z,98247.00
2023-02-11T12:24:49.277Z,98246.00
2023-02-11T12:27:22.082Z,98242.53
2023-02-11T12:30:13.827Z,98241.81
2023-02-11T12:32:47.003Z,98244.50
2023-02-11T12:35:16.965Z,98253.84
2023-02-11T12:38:04.181Z,98245.25
2023-02-11T12:41:01.356Z,98239.25
2023-02-11T12:43:37.735Z,98198.28
2023-02-11T12:46:26.083Z,98234.78
2023-02-11T12:49:01.030Z,98226.50
2023-02-11T12:51:38.081Z,98201.84
2023-02-11T12:54:31.767Z,98211.06
2023-02-11T12:57:13.666Z,98216.94
2023-02-11T13:00:13.187Z,98212.59
2023-02-11T13:03:04.977Z,98213.53
2023-02-11T13:05:53.124Z,98201.53
2023-02-11T13:08:24.996Z,98217.88
2023-02-11T13:11:07.089Z,98207.50
2023-02-11T13:14:05.507Z,98213.38
2023-02-11T13:16:37.461Z,98198.03
2023-02-11T13:19:13.637Z,98205.66
2023-02-11T13:22:11.310Z,98198.00
2023-02-11T13:24:52.764Z,98189.41
2023-02-11T13:27:45.734Z,98173.19
2023-02-11T13:30:34.757Z,98186.00
2023-02-11T13:33:03.265Z,98193.81
2023-02-11T13:39:37.127Z,98010.75
2023-02-11T13:42:04.808Z,98185.22
2023-02-11T13:44:34.706Z,98164.78
2023-02-11T13:47:05.033Z,98180.03
2023-02-11T13:49:36.224Z,98189.38
2023-02-11T13:52:06.449Z,98176.53
2023-02-11T13:54:40.958Z,98174.00
2023-02-11T13:57:20.095Z,98166.22
2023-02-11T13:59:53.479Z,98170.41
2023-02-11T14:02:47.436Z,98162.00
2023-02-11T14:05:48.894Z,98159.44
2023-02-11T14:08:43.343Z,98153.53
2023-02-11T14:11:49.313Z,98143.44
2023-02-11T14:14:33.545Z,98148.53
2023-02-11T14:17:03.497Z,98143.41
2023-02-11T14:19:45.598Z,98144.28
2023-02-11T14:22:47.851Z,98125.47
2023-02-11T14:25:25.557Z,98136.59
2023-02-11T14:27:57.918Z,98143.41
2023-02-11T14:30:55.411Z,98130.59
2023-02-11T14:33:43.773Z,98122.13
2023-02-11T14:36:32.725Z,98129.78
2023-02-11T14:39:28.841Z,98123.72
2023-02-11T14:42:00.551Z,98127.19
2023-02-11T14:44:30.396Z,98113.63
2023-02-11T14:46:58.126Z,98110.34
2023-02-11T14:49:33.573Z,98116.50
2023-02-11T14:52:07.526Z,98127.63
2023-02-11T14:54:35.310Z,98129.28
2023-02-11T14:57:21.473Z,98114.72
2023-02-11T15:00:07.716Z,98126.72
2023-02-11T15:02:37.314Z,98101.31
2023-02-11T15:05:27.398Z,98115.81
2023-02-11T15:08:03.262Z,98113.25
2023-02-11T15:10:38.126Z,98118.44
2023-02-11T15:13:05.922Z,98132.13
2023-02-11T15:15:35.882Z,98112.50
2023-02-11T15:18:04.285Z,98122.78
2023-02-11T15:20:35.852Z,98110.78
2023-02-11T15:23:07.798Z,98116.81
2023-02-11T15:25:43.009Z,98097.28
2023-02-11T15:28:31.020Z,98116.91
2023-02-11T15:31:01.746Z,98102.44
2023-02-11T15:33:32.939Z,98119.56
2023-02-11T15:36:02.790Z,98114.44
2023-02-11T15:38:30.441Z,98102.63
2023-02-11T15:41:03.506Z,98091.53
2023-02-11T15:43:47.341Z,98090.66
2023-02-11T15:46:21.261Z,98112.94
2023-02-11T15:48:49.454Z,98101.84
2023-02-11T15:51:40.020Z,98111.25
2023-02-11T15:54:18.957Z,98108.72
2023-02-11T15:56:50.007Z,98108.75
2023-02-11T15:59:27.257Z,98109.66
2023-02-11T16:01:55.078Z,98092.56
2023-02-11T16:05:06.319Z,98116.47
2023-02-11T16:07:50.246Z,98101.16
2023-02-11T16:10:24.101Z,98111.41
2023-02-11T16:13:11.177Z,98102.03
2023-02-11T16:15:50.947Z,98104.59
2023-02-11T16:18:38.429Z,98108.88
2023-02-11T16:21:15.866Z,98113.19
2023-02-11T16:23:49.353Z,98109.75
2023-02-11T16:26:34.024Z,98115.72
2023-02-11T16:29:05.037Z,98111.47
2023-02-11T16:31:43.306Z,98113.19
2023-02-11T16:34:28.282Z,98119.16
2023-02-11T16:36:55.676Z,98116.59
2023-02-11T16:39:22.980Z,98114.88
2023-02-11T16:41:51.868Z,98115.75
2023-02-11T16:44:18.831Z,98122.53
2023-02-11T16:46:46.080Z,98115.72
2023-02-11T16:49:22.686Z,98108.06
2023-02-11T16:51:50.846Z,98092.69
2023-02-11T16:54:18.914Z,98115.72
2023-02-11T16:56:46.295Z,98104.59
2023-02-11T16:59:13.452Z,98119.97
2023-02-11T17:01:42.093Z,98120.81
2023-02-11T17:04:31.568Z,98124.22
2023-02-11T17:06:58.865Z,98123.34
2023-02-11T17:09:30.597Z,98120.78
2023-02-11T17:11:58.234Z,98124.19
2023-02-11T17:14:25.182Z,98111.38
2023-02-11T17:16:54.710Z,98116.47
2023-02-11T17:19:21.850Z,98101.13
2023-02-11T17:21:51.716Z,98108.78
2023-02-11T17:24:20.624Z,98118.97
2023-02-11T17:26:48.662Z,98094.16
2023-02-11T17:29:20.993Z,98103.56
2023-02-11T17:31:48.283Z,98108.69
2023-02-11T17:34:16.621Z,98106.97
2023-02-11T17:36:44.023Z,98109.53
2023-02-11T17:39:11.088Z,98112.09
2023-02-11T17:41:39.024Z,98107.78
2023-02-11T17:44:07.709Z,98111.19
2023-02-11T17:46:35.547Z,98107.81
2023-02-11T17:49:03.815Z,98113.78
2023-02-11T17:51:36.621Z,98106.91
2023-02-11T17:54:11.025Z,98092.31
2023-02-11T17:56:38.490Z,98120.38
2023-02-11T17:59:06.512Z,98117.75
2023-02-11T18:01:34.003Z,98112.69
2023-02-11T18:04:01.841Z,98110.88
2023-02-11T18:06:29.290Z,98101.53
2023-02-11T18:08:58.037Z,98105.75
2023-02-11T18:11:25.986Z,98119.25
2023-02-11T18:13:54.460Z,98096.22
2023-02-11T18:16:22.430Z,98098.78
2023-02-11T18:18:50.134Z,98118.41
2023-02-11T18:21:20.122Z,98097.88
2023-02-11T18:23:47.893Z,98120.09
2023-02-11T18:26:16.400Z,98119.97
2023-02-11T18:28:45.849Z,98110.59
2023-02-11T18:31:13.901Z,98122.53
2023-02-11T18:33:42.249Z,98122.50
2023-02-11T18:36:14.366Z,98118.09
2023-02-11T18:38:47.138Z,98115.59
2023-02-11T18:41:14.508Z,98111.31
2023-02-11T18:43:43.016Z,98101.13
2023-02-11T18:46:12.683Z,98135.13
2023-02-11T18:48:40.429Z,98112.78
2023-02-11T18:51:13.205Z,98112.78
2023-02-11T18:53:40.125Z,98117.91
2023-02-11T18:56:10.731Z,98111.09
2023-02-11T18:58:38.091Z,98095.84
2023-02-11T19:01:17.588Z,98114.63
2023-02-11T19:03:45.190Z,98108.59
2023-02-11T19:06:20.013Z,98116.34
2023-02-11T19:08:47.434Z,98111.13
2023-02-11T19:11:18.700Z,98106.03
2023-02-11T19:13:51.346Z,98099.03
2023-02-11T19:16:19.866Z,98091.34
2023-02-11T19:18:46.992Z,98047.00
2023-02-11T19:21:13.858Z,98098.19
2023-02-11T19:23:40.822Z,98088.69
2023-02-11T19:26:07.929Z,98082.53
2023-02-11T19:28:37.197Z,98071.00
2023-02-11T19:31:09.183Z,98103.13
2023-02-11T19:33:36.833Z,98090.91
2023-02-11T19:36:08.237Z,98078.81
2023-02-11T19:38:35.898Z,98076.25
2023-02-11T19:41:02.868Z,98084.00
2023-02-11T19:43:30.433Z,98080.72
2023-02-11T19:45:57.793Z,98045.84
2023-02-11T19:48:25.445Z,98098.91
2023-02-11T19:50:52.812Z,98095.59
2023-02-11T19:53:19.834Z,98070.06
2023-02-11T20:09:20.147Z,98056.81
2023-02-11T20:11:47.256Z,98062.84
2023-02-11T20:14:15.212Z,98056.06
2023-02-11T20:16:49.176Z,98080.84
2023-02-11T20:19:20.030Z,98048.56
2023-02-11T20:21:48.928Z,98065.63
2023-02-11T20:24:19.654Z,98068.19
2023-02-11T20:26:48.506Z,98056.25
2023-02-11T20:29:17.503Z,98063.91
2023-02-11T20:31:44.901Z,98044.22
2023-02-11T20:34:12.621Z,98074.88
2023-02-11T20:36:40.677Z,98066.44
2023-02-11T20:39:08.186Z,98058.69
2023-02-11T20:41:39.221Z,98059.28
2023-02-11T20:44:09.988Z,98044.06
2023-02-11T20:46:40.170Z,98043.13
2023-02-11T20:49:08.876Z,98035.25
2023-02-11T20:51:37.389Z,98028.19
2023-02-11T20:54:07.627Z,98024.53
2023-02-11T20:56:36.949Z,98037.81
2023-02-11T20:59:05.943Z,98031.66
2023-02-11T21:01:35.910Z,98026.34
2023-02-11T21:04:06.310Z,98016.19
2023-02-11T21:06:42.042Z,98022.72
2023-02-11T21:09:13.148Z,98006.75
2023-02-11T21:11:40.345Z,98013.94
2023-02-11T21:14:07.765Z,98015.78
2023-02-11T21:16:34.602Z,98013.31
2023-02-11T21:19:02.896Z,97996.09
2023-02-11T21:21:29.866Z,97985.59
2023-02-11T21:23:58.440Z,98009.13
2023-02-11T21:26:26.234Z,97996.28
2023-02-11T21:28:55.153Z,97981.13
2023-02-11T21:31:25.138Z,97987.31
2023-02-11T21:33:54.553Z,97992.50
2023-02-11T21:36:22.823Z,97981.47
2023-02-11T21:38:50.137Z,97968.66
2023-02-11T21:41:17.605Z,97967.19
2023-02-11T21:43:45.121Z,97965.66
2023-02-11T21:46:14.882Z,97968.28
2023-02-11T21:48:42.345Z,97973.38
2023-02-11T21:51:13.034Z,97961.38
2023-02-11T21:53:39.952Z,97972.66
2023-02-11T21:56:09.965Z,97972.75
2023-02-11T21:58:36.918Z,97957.63
2023-02-11T22:01:28.503Z,97948.13
2023-02-11T22:03:55.747Z,97959.41
2023-02-11T22:06:26.292Z,97935.69
2023-02-11T22:08:54.725Z,97921.06
2023-02-11T22:11:21.830Z,97929.44
2023-02-11T22:13:54.070Z,97937.72
2023-02-11T22:16:21.294Z,97932.41
2023-02-11T22:18:48.305Z,97938.25
2023-02-11T22:21:17.475Z,97933.97
2023-02-11T22:23:45.191Z,97940.53
2023-02-11T22:26:18.399Z,97933.66
2023-02-11T22:28:45.667Z,97931.06
2023-02-11T22:31:19.402Z,97923.25
2023-02-11T22:33:46.932Z,97938.56
2023-02-11T22:36:26.297Z,97937.59
2023-02-11T22:38:54.150Z,97933.78
2023-02-11T22:41:22.597Z,97933.78
2023-02-11T22:43:49.544Z,97924.25
2023-02-11T22:46:18.455Z,97914.56
2023-02-11T22:48:45.959Z,97919.53
2023-02-11T22:51:16.367Z,97922.25
2023-02-11T22:53:46.509Z,97905.19
2023-02-11T22:56:15.596Z,97902.88
2023-02-11T22:58:43.504Z,97905.41
2023-02-11T23:01:11.535Z,97887.53
2023-02-11T23:03:38.913Z,97906.38
2023-02-11T23:06:06.417Z,97902.44
2023-02-11T23:08:33.646Z,97900.91
2023-02-11T23:11:09.825Z,97893.34
2023-02-11T23:13:38.779Z,97893.53
2023-02-11T23:16:08.621Z,97880.94
2023-02-11T23:18:36.817Z,97893.84
2023-02-11T23:21:06.804Z,97893.84
2023-02-11T23:23:34.630Z,97888.78
2023-02-11T23:26:02.082Z,97872.69
2023-02-11T23:28:29.724Z,97882.16
2023-02-11T23:30:56.696Z,97878.63
2023-02-11T23:33:23.672Z,97873.53
2023-02-11T23:35:50.578Z,97859.22
2023-02-11T23:38:17.572Z,97848.97
2023-02-11T23:40:44.396Z,97843.16
2023-02-11T23:43:11.259Z,97862.84
2023-02-11T23:45:38.144Z,97854.44
2023-02-11T23:48:05.036Z,97860.50
2023-02-11T23:50:32.659Z,97871.47
2023-02-11T23:52:59.545Z,97865.59
2023-02-11T23:55:26.381Z,97846.94
2023-02-11T23:57:53.235Z,97849.69
